Time;durP1;ratioP1;P1;durP2;ratioP2;P2;SDS_P1;SDS_P2;PMS_P1;PMS_P2;Temp;Humidity;BMP_temperature;BMP_pressure;BME280_temperature;BME280_humidity;BME280_pressure;Samples;Min_cycle;Max_cycle;Signal;HPM_P1;HPM_P2
2022/06/30 00:00:07;;;;;;;9.25;5.05;;;;;;;18.07;49.55;100771.97;5136151;27;20097;-73
2022/06/30 00:02:36;;;;;;;13.00;5.30;;;;;;;18.08;49.77;100775.50;5136365;27;20543;-73
2022/06/30 00:05:03;;;;;;;9.80;4.43;;;;;;;18.08;49.74;100772.78;5135941;27;20119;-73
2022/06/30 00:07:30;;;;;;;12.90;4.55;;;;;;;18.02;49.80;100779.88;5135904;27;20070;-73
2022/06/30 00:09:56;;;;;;;8.23;4.20;;;;;;;18.01;50.00;100785.53;5136176;27;20071;-73
2022/06/30 00:12:23;;;;;;;9.30;3.83;;;;;;;17.97;50.13;100781.56;5136047;27;20050;-73
2022/06/30 00:14:49;;;;;;;8.40;3.55;;;;;;;17.85;50.22;100792.19;5135876;27;20090;-72
2022/06/30 00:17:16;;;;;;;8.30;3.63;;;;;;;17.84;50.30;100785.94;5135971;27;20550;-72
2022/06/30 00:19:45;;;;;;;8.27;3.42;;;;;;;17.82;50.21;100785.31;5135593;27;20089;-72
2022/06/30 00:22:13;;;;;;;3.47;2.60;;;;;;;17.84;50.36;100779.66;5135579;27;20051;-72
2022/06/30 00:24:40;;;;;;;5.60;2.97;;;;;;;17.87;50.17;100787.41;5135217;27;20089;-72
2022/06/30 00:27:07;;;;;;;6.30;2.72;;;;;;;17.82;50.15;100782.59;5135347;27;20090;-72
2022/06/30 00:29:34;;;;;;;5.28;2.83;;;;;;;17.78;50.61;100780.47;5135467;27;20079;-72
2022/06/30 00:32:01;;;;;;;12.50;2.63;;;;;;;17.79;50.47;100782.19;5135047;27;20086;-72
2022/06/30 00:34:27;;;;;;;9.48;3.03;;;;;;;17.81;50.07;100786.34;5135293;27;20047;-72
2022/06/30 00:36:55;;;;;;;7.40;2.63;;;;;;;17.78;50.52;100769.63;5136009;27;20089;-72
2022/06/30 00:39:22;;;;;;;9.32;2.90;;;;;;;17.78;50.61;100780.47;5135386;27;20138;-72
2022/06/30 00:41:49;;;;;;;7.65;2.90;;;;;;;17.85;50.44;100768.59;5135627;27;20081;-72
2022/06/30 00:44:16;;;;;;;4.25;2.63;;;;;;;17.98;50.07;100767.78;5135150;28;20550;-72
2022/06/30 00:46:44;;;;;;;6.63;2.53;;;;;;;17.90;50.44;100762.56;5135610;28;20051;-72
2022/06/30 00:49:10;;;;;;;7.78;3.03;;;;;;;17.93;50.33;100767.56;5135685;28;20078;-73
2022/06/30 00:51:37;;;;;;;5.15;2.60;;;;;;;17.90;50.66;100757.13;5135237;28;20058;-72
2022/06/30 00:54:06;;;;;;;5.30;2.53;;;;;;;17.93;50.75;100762.16;5135668;28;20047;-73
2022/06/30 00:56:40;;;;;;;7.63;2.50;;;;;;;17.85;51.10;100757.72;5135443;28;20479;-73
2022/06/30 00:59:08;;;;;;;5.43;2.58;;;;;;;17.88;51.33;100755.66;5135031;28;20039;-73
2022/06/30 01:01:36;;;;;;;8.65;2.78;;;;;;;17.94;51.40;100768.41;5135739;28;20484;-72
2022/06/30 01:04:03;;;;;;;5.93;2.40;;;;;;;18.00;51.49;100754.84;5135637;28;20047;-72
2022/06/30 01:13:02;;;;;;;9.25;2.90;;;;;;;17.91;52.61;100757.97;5134867;28;20104;-72
2022/06/30 01:15:29;;;;;;;5.80;2.72;;;;;;;18.07;52.36;100754.84;5135034;27;20078;-72
2022/06/30 01:17:56;;;;;;;7.57;2.75;;;;;;;18.02;52.98;100760.88;5134820;28;20078;-72
2022/06/30 01:20:40;;;;;;;5.10;3.00;;;;;;;17.97;53.31;100762.56;5134872;28;20542;-73
2022/06/30 01:23:07;;;;;;;7.30;2.97;;;;;;;17.90;53.95;100768.00;5134559;28;20055;-73
2022/06/30 01:25:34;;;;;;;6.60;2.60;;;;;;;17.88;54.08;100763.81;5135113;28;20146;-71
2022/06/30 01:28:01;;;;;;;8.30;2.80;;;;;;;17.79;54.43;100757.75;5134698;28;20152;-71
2022/06/30 01:30:28;;;;;;;6.72;2.95;;;;;;;17.81;54.42;100761.09;5134809;28;20074;-71
2022/06/30 01:32:55;;;;;;;7.95;3.35;;;;;;;17.81;54.30;100752.94;5135185;28;20097;-72
2022/06/30 01:35:21;;;;;;;5.15;2.72;;;;;;;17.69;54.98;100750.00;5135505;28;20059;-73
2022/06/30 01:37:55;;;;;;;4.72;2.45;;;;;;;17.68;54.89;100752.91;5134959;28;20058;-72
2022/06/30 01:40:23;;;;;;;6.93;2.92;;;;;;;17.74;55.04;100755.66;5134826;28;20071;-72
2022/06/30 01:42:50;;;;;;;8.75;2.80;;;;;;;17.67;55.28;100756.69;5134809;28;20142;-72
2022/06/30 01:45:18;;;;;;;6.85;2.65;;;;;;;17.72;55.36;100749.59;5134952;28;20079;-72
2022/06/30 01:47:44;;;;;;;9.98;2.63;;;;;;;17.60;55.76;100752.06;5134778;28;20093;-72
2022/06/30 01:50:14;;;;;;;11.07;2.83;;;;;;;17.72;55.45;100754.19;5135667;28;20074;-72
2022/06/30 01:52:40;;;;;;;8.32;2.88;;;;;;;17.72;55.54;100754.19;5135630;28;20122;-72
2022/06/30 01:55:08;;;;;;;9.45;3.03;;;;;;;17.67;55.38;100743.94;5136765;27;20104;-72
2022/06/30 01:57:35;;;;;;;6.55;3.25;;;;;;;17.72;55.60;100746.91;5138288;27;20086;-72
2022/06/30 02:00:08;;;;;;;6.60;2.38;;;;;;;17.70;55.45;100745.41;5138940;27;20053;-72
2022/06/30 02:02:34;;;;;;;6.97;2.60;;;;;;;17.73;55.37;100742.28;5138522;27;20043;-72
2022/06/30 02:05:01;;;;;;;11.13;2.88;;;;;;;17.73;55.51;100739.59;5138340;27;20469;-73
2022/06/30 02:07:28;;;;;;;6.75;2.92;;;;;;;17.76;55.51;100734.56;5138113;27;20104;-71
2022/06/30 02:09:55;;;;;;;8.27;2.65;;;;;;;17.88;55.05;100740.22;5138042;27;20078;-72
2022/06/30 02:15:10;;;;;;;5.78;3.28;;;;;;;17.85;55.29;100733.31;5138058;27;20077;-72
2022/06/30 02:17:37;;;;;;;8.70;2.45;;;;;;;17.90;54.86;100735.41;5137914;27;20126;-72
2022/06/30 02:20:07;;;;;;;7.95;2.70;;;;;;;18.19;53.87;100726.03;5138113;27;20049;-72
2022/06/30 02:22:35;;;;;;;9.27;3.05;;;;;;;17.91;54.80;100734.38;5138747;27;20133;-73
2022/06/30 02:25:03;;;;;;;6.72;2.60;;;;;;;17.85;54.97;100727.06;5138464;27;20129;-73
2022/06/30 02:27:31;;;;;;;7.20;3.20;;;;;;;17.84;55.23;100726.22;5137687;27;20097;-72
2022/06/30 02:29:57;;;;;;;6.28;2.45;;;;;;;17.84;55.37;100730.81;5137667;27;20071;-73
2022/06/30 02:32:25;;;;;;;8.75;2.78;;;;;;;17.78;55.92;100729.75;5137816;27;20134;-73
2022/06/30 02:34:52;;;;;;;8.50;2.80;;;;;;;17.79;55.80;100727.91;5137900;27;20443;-73
2022/06/30 02:37:19;;;;;;;6.13;2.83;;;;;;;17.85;55.56;100721.63;5137948;27;20494;-73
2022/06/30 02:39:45;;;;;;;9.50;3.03;;;;;;;17.77;55.87;100724.56;5137361;27;20078;-73
2022/06/30 02:42:12;;;;;;;8.40;2.70;;;;;;;17.73;56.02;100718.72;5137566;27;20078;-73
2022/06/30 02:44:38;;;;;;;8.32;2.63;;;;;;;17.73;55.83;100720.59;5137648;27;20074;-73
2022/06/30 02:47:05;;;;;;;8.27;2.63;;;;;;;17.71;55.85;100715.34;5137857;27;20063;-73
2022/06/30 02:49:32;;;;;;;6.13;2.55;;;;;;;17.76;55.98;100718.28;5137945;27;20104;-74
2022/06/30 02:51:58;;;;;;;5.80;2.65;;;;;;;17.72;56.29;100724.34;5137355;27;20074;-73
2022/06/30 02:54:25;;;;;;;5.57;2.50;;;;;;;17.73;56.31;100723.31;5136656;27;20126;-73
2022/06/30 02:56:51;;;;;;;7.38;2.92;;;;;;;17.75;56.37;100718.47;5136555;27;20138;-73
2022/06/30 02:59:18;;;;;;;5.15;2.60;;;;;;;17.73;56.41;100713.28;5136031;27;20051;-73
2022/06/30 03:01:44;;;;;;;6.07;2.72;;;;;;;17.62;56.99;100710.34;5136129;27;20135;-73
2022/06/30 03:04:11;;;;;;;13.68;2.80;;;;;;;17.45;57.80;100712.63;5136358;27;20058;-73
2022/06/30 03:06:38;;;;;;;6.68;3.47;;;;;;;;;;5135802;27;20413;-73
2022/06/30 03:09:04;;;;;;;8.18;3.00;;;;;;;;;;5136923;27;20133;-73
2022/06/30 03:11:31;;;;;;;5.00;3.08;;;;;;;17.56;57.67;100718.25;5136682;27;20046;-73
2022/06/30 03:14:17;;;;;;;4.93;3.13;;;;;;;17.64;57.53;100708.25;5135980;27;20072;-73
2022/06/30 03:16:44;;;;;;;9.00;3.13;;;;;;;17.69;57.36;100712.03;5118320;27;20048;-73
2022/06/30 03:19:11;;;;;;;9.68;3.10;;;;;;;17.54;57.86;100714.09;5136087;27;20167;-73
2022/06/30 03:21:37;;;;;;;6.57;2.90;;;;;;;17.57;57.68;100714.50;5136665;27;20147;-73
2022/06/30 03:24:05;;;;;;;6.65;3.20;;;;;;;17.69;57.42;100705.78;5136031;27;20134;-73
2022/06/30 03:26:31;;;;;;;5.53;2.83;;;;;;;17.82;56.70;100703.91;5135681;27;20091;-73
2022/06/30 03:28:58;;;;;;;7.72;3.22;;;;;;;17.78;57.01;100690.94;5136086;27;20047;-73
2022/06/30 03:31:24;;;;;;;6.68;2.80;;;;;;;17.84;56.84;100690.09;5135765;27;20123;-73
2022/06/30 03:33:51;;;;;;;9.80;3.13;;;;;;;17.76;56.89;100685.75;5136097;27;20047;-73
2022/06/30 03:36:17;;;;;;;4.25;3.00;;;;;;;17.71;57.29;100685.50;5134309;27;20096;-73
2022/06/30 03:38:44;;;;;;;5.82;2.50;;;;;;;17.71;57.06;100677.38;5136270;27;20089;-73
2022/06/30 03:41:11;;;;;;;11.45;3.47;;;;;;;17.71;56.80;100676.53;5136013;27;20193;-73
2022/06/30 03:43:37;;;;;;;4.95;3.00;;;;;;;17.59;57.17;100679.88;5135360;27;20051;-73
2022/06/30 03:46:04;;;;;;;6.22;3.17;;;;;;;17.67;56.78;100675.28;5136450;27;20135;-73
2022/06/30 03:48:31;;;;;;;10.10;3.00;;;;;;;17.63;56.85;100679.47;5135496;27;20559;-73
2022/06/30 03:50:57;;;;;;;6.13;2.60;;;;;;;17.65;56.74;100680.06;5135107;27;20125;-73
2022/06/30 03:53:24;;;;;;;4.10;2.70;;;;;;;17.72;56.42;100684.50;5135641;27;20079;-73
2022/06/30 03:55:50;;;;;;;5.85;2.65;;;;;;;17.62;56.55;100686.78;5135299;27;20058;-73
2022/06/30 03:58:17;;;;;;;6.10;3.20;;;;;;;17.64;56.48;100673.81;5135870;27;20054;-73
2022/06/30 04:00:43;;;;;;;6.20;3.08;;;;;;;17.59;56.64;100679.06;5135654;27;20130;-73
2022/06/30 04:03:10;;;;;;;10.05;2.95;;;;;;;17.62;56.47;100675.09;5136397;27;20414;-73
2022/06/30 04:05:38;;;;;;;10.55;3.08;;;;;;;17.66;56.33;100668.19;5136388;27;20493;-73
2022/06/30 04:08:05;;;;;;;7.05;2.53;;;;;;;17.68;56.28;100674.25;5136538;27;20119;-73
2022/06/30 04:10:32;;;;;;;5.95;2.90;;;;;;;17.69;56.32;100684.91;5135877;27;20063;-73
2022/06/30 04:12:59;;;;;;;7.93;2.60;;;;;;;17.76;56.39;100674.88;5135408;27;20047;-73
2022/06/30 04:15:26;;;;;;;7.05;2.90;;;;;;;17.73;56.37;100679.88;5118923;27;20079;-72
2022/06/30 04:17:53;;;;;;;5.57;3.08;;;;;;;17.65;56.90;100682.78;5138283;27;20090;-72
2022/06/30 04:20:21;;;;;;;5.20;2.90;;;;;;;17.57;57.39;100686.53;5137856;27;20047;-73
2022/06/30 04:22:50;;;;;;;6.38;2.85;;;;;;;17.76;56.59;100680.31;5136155;27;20141;-72
2022/06/30 04:25:17;;;;;;;9.10;3.00;;;;;;;17.81;56.75;100672.34;5135355;27;20047;-73
2022/06/30 04:27:53;;;;;;;8.10;3.42;;;;;;;17.72;57.10;100675.50;5134611;27;20130;-73
2022/06/30 04:33:07;;;;;;;6.10;3.20;;;;;;;17.66;57.56;100674.47;5135001;27;20126;-73
2022/06/30 04:35:34;;;;;;;6.38;2.83;;;;;;;17.72;57.24;100678.22;5134991;27;20074;-73
2022/06/30 04:38:02;;;;;;;7.88;2.80;;;;;;;17.76;57.70;100674.06;5134764;27;20051;-73
2022/06/30 04:43:14;;;;;;;8.95;3.00;;;;;;;17.90;57.23;100681.13;5135101;28;20535;-73
2022/06/30 04:45:41;;;;;;;6.32;2.80;;;;;;;17.83;57.46;100680.31;5136282;28;20062;-73
2022/06/30 04:48:08;;;;;;;11.77;3.05;;;;;;;18.03;56.86;100683.84;5139017;28;20161;-73
2022/06/30 04:50:35;;;;;;;18.77;3.40;;;;;;;18.06;57.66;100679.84;5138729;28;20138;-73
2022/06/30 04:53:02;;;;;;;9.75;2.88;;;;;;;18.06;57.65;100678.00;5139111;28;20134;-73
2022/06/30 04:55:28;;;;;;;6.65;3.30;;;;;;;17.96;57.83;100680.31;5138070;28;20114;-73
2022/06/30 04:57:55;;;;;;;7.90;3.67;;;;;;;17.88;57.96;100683.22;5135555;28;20047;-73
2022/06/30 05:00:22;;;;;;;6.43;2.92;;;;;;;17.85;57.99;100678.19;5135238;28;20453;-73
2022/06/30 05:02:48;;;;;;;10.75;3.00;;;;;;;18.02;57.58;100673.19;5136049;28;20043;-73
2022/06/30 05:05:15;;;;;;;12.82;3.10;;;;;;;17.93;57.78;100677.19;5134972;28;20139;-73
2022/06/30 05:07:42;;;;;;;7.90;3.75;;;;;;;18.12;57.57;100678.19;5135735;28;20063;-73
2022/06/30 05:10:08;;;;;;;7.35;3.20;;;;;;;17.88;57.87;100669.66;5134943;28;20498;-72
2022/06/30 05:12:35;;;;;;;5.07;3.30;;;;;;;18.01;57.54;100666.09;5134716;28;20078;-72
2022/06/30 05:15:02;;;;;;;9.80;3.28;;;;;;;18.02;58.00;100673.19;5134705;27;20126;-72
2022/06/30 05:17:28;;;;;;;9.88;3.63;;;;;;;17.98;57.81;100670.06;5134906;28;20133;-73
2022/06/30 05:19:55;;;;;;;8.60;3.45;;;;;;;17.97;58.02;100667.56;5135565;28;20528;-73
2022/06/30 05:22:21;;;;;;;7.63;3.53;;;;;;;17.91;58.38;100662.97;5134726;28;20103;-73
2022/06/30 05:27:34;;;;;;;10.40;3.67;;;;;;;18.10;57.98;100664.84;5135414;28;20082;-73
2022/06/30 05:30:01;;;;;;;13.82;4.15;;;;;;;18.11;57.83;100668.38;5137974;27;20074;-73
2022/06/30 05:32:27;;;;;;;13.93;3.90;;;;;;;17.89;58.46;100671.34;5139800;27;20460;-73
2022/06/30 05:34:54;;;;;;;10.25;3.70;;;;;;;17.80;58.98;100664.44;5138890;27;20085;-72
2022/06/30 05:37:20;;;;;;;9.30;3.67;;;;;;;17.77;58.91;100667.56;5138847;27;20538;-72
2022/06/30 05:39:47;;;;;;;16.27;4.35;;;;;;;17.89;59.11;100656.91;5138999;27;20070;-72
2022/06/30 05:42:13;;;;;;;13.10;3.80;;;;;;;17.93;59.13;100663.59;5138547;27;20142;-72
2022/06/30 05:44:40;;;;;;;5.90;3.83;;;;;;;17.94;59.40;100665.28;5139268;27;20134;-72
2022/06/30 05:47:06;;;;;;;12.07;4.25;;;;;;;18.13;59.03;100671.69;5138479;27;20135;-72
2022/06/30 05:49:33;;;;;;;8.55;3.88;;;;;;;18.13;59.07;100669.81;5139291;27;20071;-72
2022/06/30 05:51:59;;;;;;;13.02;3.38;;;;;;;18.06;59.03;100661.72;5138155;27;20495;-73
2022/06/30 05:54:26;;;;;;;7.65;3.85;;;;;;;18.29;58.66;100663.16;5138336;27;20414;-73
2022/06/30 05:56:53;;;;;;;7.95;3.63;;;;;;;18.12;59.15;100667.31;5138705;27;20137;-73
2022/06/30 05:59:19;;;;;;;7.93;3.70;;;;;;;18.30;58.57;100662.09;5138190;27;20054;-73
2022/06/30 06:01:46;;;;;;;5.97;3.90;;;;;;;18.40;58.54;100665.19;5138062;27;20536;-73
2022/06/30 06:04:12;;;;;;;9.85;3.95;;;;;;;18.40;58.47;100675.22;5138386;27;20051;-73
2022/06/30 06:06:39;;;;;;;11.05;4.20;;;;;;;18.29;58.73;100674.00;5138502;27;20071;-72
2022/06/30 06:09:06;;;;;;;6.50;3.88;;;;;;;18.38;58.89;100672.75;5119722;27;20151;-72
2022/06/30 06:11:32;;;;;;;9.02;4.25;;;;;;;18.33;58.97;100666.28;5137796;27;20086;-72
2022/06/30 06:13:59;;;;;;;9.32;4.07;;;;;;;18.38;59.07;100670.03;5137714;27;20090;-71
2022/06/30 06:16:26;;;;;;;5.72;4.15;;;;;;;18.38;58.81;100688.22;5119272;27;20051;-71
2022/06/30 06:18:53;;;;;;;6.32;4.22;;;;;;;18.50;58.60;100691.94;5137631;27;20079;-71
2022/06/30 06:21:20;;;;;;;6.53;3.95;;;;;;;18.49;58.76;100692.97;5137413;27;20039;-71
2022/06/30 06:23:47;;;;;;;11.82;4.35;;;;;;;18.28;59.47;100699.50;5138448;27;20528;-72
2022/06/30 06:26:14;;;;;;;10.30;4.45;;;;;;;18.49;58.75;100691.09;5137392;27;20101;-72
2022/06/30 06:31:25;;;;;;;7.97;4.07;;;;;;;18.26;60.00;100707.84;5136801;27;20133;-71
2022/06/30 06:33:52;;;;;;;10.73;4.30;;;;;;;18.57;58.51;100703.59;5137188;27;20130;-71
2022/06/30 06:36:19;;;;;;;11.85;4.72;;;;;;;18.54;58.98;100702.13;5137922;27;20138;-71
2022/06/30 06:38:45;;;;;;;6.55;4.30;;;;;;;18.42;59.36;100700.31;5137149;27;20051;-71
2022/06/30 06:41:12;;;;;;;7.90;4.40;;;;;;;18.27;59.90;100700.53;5136093;27;20142;-71
2022/06/30 06:43:39;;;;;;;11.25;4.43;;;;;;;18.35;59.75;100696.78;5137906;27;20062;-71
2022/06/30 06:46:05;;;;;;;10.40;4.72;;;;;;;18.26;60.12;100701.59;5137650;27;20142;-71
2022/06/30 06:48:32;;;;;;;10.43;4.70;;;;;;;18.21;60.47;100704.13;5138122;27;20055;-71
2022/06/30 06:50:59;;;;;;;18.52;4.53;;;;;;;18.33;59.96;100699.69;5137468;27;20098;-71
2022/06/30 06:53:26;;;;;;;10.57;4.65;;;;;;;18.37;59.90;100700.94;5137427;27;20047;-71
2022/06/30 06:55:53;;;;;;;7.65;4.75;;;;;;;18.44;59.50;100703.63;5138146;27;20047;-71
2022/06/30 06:58:20;;;;;;;7.70;4.68;;;;;;;18.42;59.81;100697.59;5137585;27;20395;-71
2022/06/30 07:00:46;;;;;;;7.10;4.60;;;;;;;18.43;60.02;100696.53;5137165;27;20142;-71
2022/06/30 07:03:13;;;;;;;9.82;4.28;;;;;;;18.65;59.24;100702.53;5136812;27;20047;-71
2022/06/30 07:05:40;;;;;;;7.70;4.93;;;;;;;18.61;59.61;100695.84;5137044;27;20066;-71
2022/06/30 07:08:07;;;;;;;13.68;5.60;;;;;;;18.51;59.78;100696.31;5136557;27;20091;-71
2022/06/30 07:10:33;;;;;;;12.05;5.47;;;;;;;18.45;59.71;100699.91;5136918;27;20115;-73
2022/06/30 07:13:01;;;;;;;10.60;4.65;;;;;;;18.43;59.99;100702.81;5137149;27;20129;-73
2022/06/30 07:15:28;;;;;;;10.23;4.75;;;;;;;18.70;59.35;100705.44;5136753;27;20138;-73
2022/06/30 07:17:55;;;;;;;11.43;5.43;;;;;;;18.68;59.47;100711.09;5136648;27;20093;-73
2022/06/30 07:20:22;;;;;;;9.48;4.25;;;;;;;18.98;58.62;100708.72;5136572;27;20047;-74
2022/06/30 07:22:49;;;;;;;8.20;4.32;;;;;;;18.69;59.06;100709.22;5137112;27;20118;-73
2022/06/30 07:25:35;;;;;;;8.73;4.10;;;;;;;19.05;58.21;100716.00;5137419;27;20058;-74
2022/06/30 07:28:04;;;;;;;12.88;5.25;;;;;;;19.39;57.14;100712.06;5136463;27;20051;-74
2022/06/30 07:30:30;;;;;;;11.52;4.65;;;;;;;19.60;56.58;100708.97;5118446;27;20075;-74
2022/06/30 07:32:57;;;;;;;15.35;5.28;;;;;;;19.85;55.75;100716.34;5136718;27;20043;-74
2022/06/30 07:35:24;;;;;;;12.90;4.82;;;;;;;20.40;54.36;100711.06;5136889;27;20072;-75
2022/06/30 07:37:50;;;;;;;10.82;5.00;;;;;;;20.74;53.42;100706.91;5137675;27;20390;-75
2022/06/30 07:40:17;;;;;;;8.23;3.80;;;;;;;20.95;52.49;100700.13;5118803;27;20050;-74
2022/06/30 07:42:43;;;;;;;10.77;4.40;;;;;;;21.53;51.19;100696.00;5137502;27;20125;-75
2022/06/30 07:45:11;;;;;;;6.75;3.70;;;;;;;21.77;49.88;100696.84;5136934;27;20134;-75
2022/06/30 07:47:42;;;;;;;11.60;4.15;;;;;;;22.22;49.32;100693.59;5136699;27;20098;-74
2022/06/30 07:50:09;;;;;;;10.38;4.53;;;;;;;22.00;48.94;100694.19;5136465;27;20055;-74
2022/06/30 07:52:36;;;;;;;8.13;4.85;;;;;;;21.50;50.47;100691.00;5136925;27;20122;-74
2022/06/30 07:55:03;;;;;;;8.00;4.65;;;;;;;21.70;50.53;100697.00;5136811;27;20051;-74
2022/06/30 07:57:30;;;;;;;12.40;4.85;;;;;;;21.84;50.05;100682.06;5136389;27;20500;-74
2022/06/30 07:59:59;;;;;;;7.22;4.20;;;;;;;21.61;50.75;100677.38;5136680;27;20130;-75
2022/06/30 08:02:25;;;;;;;13.02;5.03;;;;;;;22.07;49.63;100678.50;5136282;27;20073;-75
2022/06/30 08:04:52;;;;;;;6.30;3.92;;;;;;;22.33;48.94;100679.09;5135933;27;20138;-75
2022/06/30 08:07:18;;;;;;;7.65;5.40;;;;;;;22.00;49.71;100668.78;5135740;27;20494;-75
2022/06/30 08:09:46;;;;;;;12.52;5.63;;;;;;;22.42;48.64;100679.53;5136089;27;20424;-75
2022/06/30 08:12:12;;;;;;;5.43;3.90;;;;;;;22.16;48.74;100680.91;5136232;27;20410;-75
2022/06/30 08:14:39;;;;;;;10.45;4.75;;;;;;;22.51;48.58;100678.16;5135779;27;20059;-75
2022/06/30 08:17:06;;;;;;;8.98;4.75;;;;;;;22.76;48.17;100675.09;5136183;27;20120;-75
2022/06/30 08:19:33;;;;;;;8.35;4.72;;;;;;;23.10;47.60;100678.78;5136532;27;20464;-75
2022/06/30 08:22:00;;;;;;;11.63;4.93;;;;;;;22.99;47.35;100671.47;5136027;27;20039;-75
2022/06/30 08:24:27;;;;;;;10.45;5.07;;;;;;;22.09;50.11;100679.09;5136284;27;20392;-75
2022/06/30 08:26:54;;;;;;;12.32;4.53;;;;;;;21.94;50.59;100669.72;5135695;27;20542;-75
2022/06/30 08:29:20;;;;;;;9.55;6.03;;;;;;;21.87;50.99;100674.47;5135621;27;20445;-75
2022/06/30 08:31:47;;;;;;;9.45;5.18;;;;;;;21.53;51.90;100677.72;5136002;27;20514;-75
2022/06/30 08:34:14;;;;;;;10.70;4.95;;;;;;;21.18;52.91;100685.78;5135847;27;20058;-75
2022/06/30 08:36:40;;;;;;;9.75;6.03;;;;;;;20.98;53.55;100677.88;5135618;27;20499;-75
2022/06/30 08:42:02;;;;;;;9.95;5.90;;;;;;;21.12;53.72;100682.09;5135208;27;20140;-75
2022/06/30 08:42:03;;;;;;;10.20;6.25;;;;;;;21.53;52.57;100679.63;5135804;27;20519;-75
2022/06/30 08:44:33;;;;;;;12.93;6.55;;;;;;;21.98;50.72;100681.81;5137034;28;20047;-75
2022/06/30 08:47:02;;;;;;;11.07;6.03;;;;;;;22.09;50.68;100684.56;5136144;28;20047;-75
2022/06/30 08:49:29;;;;;;;11.55;5.00;;;;;;;22.03;50.48;100680.06;5135522;28;20118;-75
2022/06/30 08:51:58;;;;;;;11.43;5.95;;;;;;;21.53;51.89;100676.91;5137202;28;20403;-75
2022/06/30 08:54:26;;;;;;;8.77;5.35;;;;;;;21.79;51.36;100683.81;5135192;28;20071;-75
2022/06/30 08:56:55;;;;;;;7.53;5.25;;;;;;;22.42;49.74;100671.34;5136714;28;20446;-75
2022/06/30 08:59:24;;;;;;;9.52;6.00;;;;;;;21.88;50.73;100674.25;5135534;28;20051;-75
2022/06/30 09:01:55;;;;;;;10.02;5.53;;;;;;;21.83;51.55;100680.38;5135687;28;20051;-75
2022/06/30 09:04:22;;;;;;;9.13;5.28;;;;;;;21.67;51.41;100670.16;5137661;27;20051;-75
2022/06/30 09:06:49;;;;;;;7.55;5.38;;;;;;;22.20;50.20;100669.25;5140458;27;20133;-75
2022/06/30 09:09:15;;;;;;;11.43;5.45;;;;;;;22.49;49.89;100674.81;5140332;27;20356;-74
2022/06/30 09:11:48;;;;;;;9.98;6.07;;;;;;;22.32;50.11;100671.94;5139373;27;20054;-75
2022/06/30 09:14:42;;;;;;;8.05;5.10;;;;;;;21.95;50.69;100674.13;5139021;27;20137;-75
2022/06/30 09:17:17;;;;;;;8.55;5.45;;;;;;;21.53;52.33;100668.72;5139209;27;20086;-74
2022/06/30 09:20:00;;;;;;;9.18;6.07;;;;;;;21.08;53.59;100663.69;5139364;27;20134;-74
2022/06/30 09:22:28;;;;;;;9.05;6.15;;;;;;;21.04;53.90;100660.59;5139351;27;20139;-74
2022/06/30 09:24:57;;;;;;;11.20;5.63;;;;;;;20.97;54.09;100659.81;5139434;27;20089;-74
2022/06/30 09:27:27;;;;;;;10.40;5.47;;;;;;;20.98;54.57;100660.69;5138633;27;20061;-74
2022/06/30 09:29:56;;;;;;;10.90;6.80;;;;;;;21.51;52.91;100662.63;5139225;27;20443;-74
2022/06/30 09:32:49;;;;;;;7.10;4.85;;;;;;;21.37;52.54;100657.38;5139658;27;20051;-75
2022/06/30 09:35:18;;;;;;;14.82;5.30;;;;;;;21.74;51.33;100670.88;5139495;27;20096;-75
2022/06/30 09:37:45;;;;;;;11.07;5.05;;;;;;;21.73;51.20;100665.63;5139980;27;20051;-75
2022/06/30 09:40:12;;;;;;;8.85;5.63;;;;;;;22.10;50.99;100663.53;5139333;27;20070;-74
2022/06/30 09:42:44;;;;;;;9.15;5.40;;;;;;;22.53;49.62;100667.78;5139130;27;20461;-74
2022/06/30 09:45:42;;;;;;;9.25;5.00;;;;;;;22.51;49.72;100675.41;5139171;27;20129;-74
2022/06/30 09:48:10;;;;;;;7.35;5.38;;;;;;;22.71;49.10;100681.31;5139199;27;20138;-74
2022/06/30 09:50:38;;;;;;;9.05;5.93;;;;;;;23.05;48.62;100675.94;5138409;27;20051;-74
2022/06/30 09:53:10;;;;;;;6.28;5.20;;;;;;;23.10;48.51;100676.06;5138360;27;20039;-74
2022/06/30 09:55:38;;;;;;;8.82;5.38;;;;;;;23.07;48.39;100672.97;5139170;27;20141;-74
2022/06/30 09:58:05;;;;;;;7.07;4.97;;;;;;;23.41;47.42;100669.25;5138595;27;20393;-74
2022/06/30 10:00:49;;;;;;;7.25;5.28;;;;;;;23.50;47.20;100666.94;5138263;27;20124;-73
2022/06/30 10:03:18;;;;;;;10.75;4.57;;;;;;;23.19;47.66;100669.16;5139003;27;20436;-73
2022/06/30 10:05:49;;;;;;;9.35;5.78;;;;;;;24.66;44.36;100672.56;5137807;27;20483;-73
2022/06/30 10:08:18;;;;;;;7.28;5.10;;;;;;;24.32;44.94;100673.72;5138546;27;20059;-72
2022/06/30 10:10:45;;;;;;;6.68;5.22;;;;;;;23.91;45.88;100676.69;5138273;27;20047;-74
2022/06/30 10:13:15;;;;;;;9.98;5.80;;;;;;;23.97;45.96;100678.41;5138192;27;20047;-74
2022/06/30 10:15:47;;;;;;;8.02;5.13;;;;;;;23.88;45.97;100671.69;5136858;27;20133;-74
2022/06/30 10:18:16;;;;;;;17.15;5.25;;;;;;;23.66;46.57;100663.38;5138170;27;20146;-74
2022/06/30 10:20:45;;;;;;;12.35;4.72;;;;;;;24.34;45.29;100666.91;5138517;27;20423;-74
2022/06/30 10:23:13;;;;;;;8.57;4.82;;;;;;;24.10;45.92;100657.25;5120744;27;20088;-74
2022/06/30 10:25:41;;;;;;;5.28;4.05;;;;;;;25.11;42.89;100654.97;5138382;27;20096;-74
2022/06/30 10:28:08;;;;;;;7.28;4.60;;;;;;;24.07;45.59;100655.81;5137543;27;20414;-74
2022/06/30 10:30:44;;;;;;;6.93;4.40;;;;;;;24.29;44.85;100672.31;5137556;27;20055;-74
2022/06/30 10:33:31;;;;;;;5.78;3.90;;;;;;;25.17;43.12;100664.09;5137646;27;20545;-74
2022/06/30 10:36:07;;;;;;;6.10;4.55;;;;;;;25.03;43.08;100668.34;5138273;27;20135;-74
2022/06/30 10:39:02;;;;;;;9.00;4.47;;;;;;;25.69;41.97;100660.75;5137515;27;20047;-73
2022/06/30 10:41:28;;;;;;;10.82;5.10;;;;;;;25.37;42.55;100649.72;5137635;27;20479;-73
2022/06/30 10:44:04;;;;;;;6.03;4.38;;;;;;;24.67;44.29;100649.50;5137322;27;20085;-73
2022/06/30 10:46:45;;;;;;;6.30;4.85;;;;;;;24.96;43.95;100651.19;5137549;27;20459;-73
2022/06/30 10:49:13;;;;;;;7.28;4.40;;;;;;;24.38;44.75;100653.50;5137982;27;20062;-72
2022/06/30 10:51:40;;;;;;;7.72;4.93;;;;;;;24.34;45.16;100649.63;5137021;27;20140;-73
2022/06/30 10:54:08;;;;;;;5.30;4.20;;;;;;;25.22;43.40;100653.16;5137655;27;20137;-73
2022/06/30 10:56:51;;;;;;;9.68;4.78;;;;;;;25.23;43.41;100654.81;5137415;27;20403;-73
2022/06/30 10:59:29;;;;;;;8.57;4.85;;;;;;;25.48;42.57;100647.88;5137607;27;20103;-73
2022/06/30 11:02:08;;;;;;;9.75;5.00;;;;;;;25.22;42.88;100650.41;5137463;27;20550;-73
2022/06/30 11:04:40;;;;;;;7.60;4.72;;;;;;;24.59;44.22;100647.22;5137509;27;20431;-73
2022/06/30 11:07:08;;;;;;;7.18;4.93;;;;;;;24.07;45.18;100642.13;5137107;27;20459;-73
2022/06/30 11:09:44;;;;;;;10.73;5.35;;;;;;;23.02;48.30;100635.41;5136869;27;20051;-73
2022/06/30 11:12:11;;;;;;;7.35;5.25;;;;;;;23.05;48.26;100632.16;5137162;27;20444;-73
2022/06/30 11:14:52;;;;;;;7.45;5.30;;;;;;;23.12;48.16;100632.91;5136851;27;20111;-74
2022/06/30 11:17:24;;;;;;;9.75;4.30;;;;;;;22.90;47.74;100637.38;5137100;27;20450;-74
2022/06/30 11:20:13;;;;;;;4.53;4.07;;;;;;;23.35;46.98;100631.91;5136329;27;20083;-73
2022/06/30 11:22:41;;;;;;;14.88;4.95;;;;;;;24.09;45.66;100639.97;5136491;27;20044;-72
2022/06/30 11:27:17;;;;;;;8.65;4.32;;;;;;;24.86;43.66;100638.22;5136505;27;20047;-74
2022/06/30 11:28:03;;;;;;;10.30;4.88;;;;;;;24.47;44.34;100643.78;5136696;27;20475;-72
2022/06/30 11:30:31;;;;;;;7.78;4.57;;;;;;;24.17;45.44;100625.81;5136673;27;20043;-72
2022/06/30 11:32:58;;;;;;;10.50;5.22;;;;;;;24.72;44.19;100624.06;5137210;27;20126;-74
2022/06/30 11:35:29;;;;;;;10.57;4.97;;;;;;;25.44;43.04;100624.78;5136966;27;20078;-73
2022/06/30 11:37:56;;;;;;;6.10;5.35;;;;;;;24.79;43.52;100623.88;5136523;27;20137;-74
2022/06/30 11:40:23;;;;;;;12.48;5.70;;;;;;;23.81;45.84;100626.38;5135910;27;20091;-74
2022/06/30 11:42:53;;;;;;;11.18;5.15;;;;;;;23.83;46.10;100629.72;5136518;27;20134;-73
2022/06/30 11:45:21;;;;;;;12.13;5.50;;;;;;;23.67;46.31;100623.13;5136013;27;20135;-73
2022/06/30 11:48:03;;;;;;;7.57;5.07;;;;;;;23.91;45.91;100623.78;5136381;27;20464;-73
2022/06/30 11:50:30;;;;;;;7.63;5.40;;;;;;;23.71;46.50;100625.13;5136338;27;20070;-73